• Join FlightAware (Why Join?)
  • Login
  • US Flag 
03:22PM EST


 

Airport Tracker/Info


-or-


 

Live Flight TrackerFlight Track Log ✈ SWA303 ✈ 11-Apr-2013 ✈ KSNA - KOAK

Flight Track Log - Related Links

Times and Time Zones

All times are in EDT time to prevent confusion due to time zone crossing. See the SWA303 flight status page for this flight to view local times or setup timezone preferences in your user account.

Time Position Orientation Groundspeed Altitude Reporting Facility
EDT Latitude Longitude Course Direction KTS MPH feet Rate Location/Type
11:51PM 33.6333 -117.8833 320° Northwest 143 165 2,500  Level Southern California TRACON
11:52PM 33.5833 -117.9000 196° South 193 222 4,200 1,980 Climbing Southern California TRACON
11:53PM 33.5178 -117.9456 210° Southwest 261 300 6,700 2,820 Climbing Los Angeles Center
11:54PM 33.4650 -117.9900 215° Southwest 279 321 10,200 3,660 Climbing Los Angeles Center
11:55PM 33.4511 -118.0917 261° West 334 384 14,300 4,200 Climbing Los Angeles Center
11:56PM 34.1296 -118.3275 320° Northwest  Level Estimated
11:56PM 33.5003 -118.2128 296° West 358 412 19,000  Level Los Angeles Center
11:57PM 33.5950 -118.2633 336° Northwest 369 425 22,800 3,360 Climbing Los Angeles Center
11:58PM 33.7108 -118.3203 338° Northwest 389 448 26,000 2,700 Climbing Los Angeles Center
11:59PM 33.8178 -118.3739 337° Northwest 408 470 28,500 2,340 Climbing Los Angeles Center
12:00AM 33.9242 -118.4281 337° Northwest 426 490 30,800 2,340 Climbing Los Angeles Center
12:01AM 34.0367 -118.4836 338° Northwest 434 499 33,400 2,460 Climbing Los Angeles Center
12:02AM 34.1461 -118.5364 338° Northwest 428 493 36,000 2,520 Climbing Los Angeles Center
12:03AM 34.2744 -118.6003 338° Northwest 418 481 38,700 1,920 Climbing Los Angeles Center
12:04AM 34.3794 -118.6519 338° Northwest 409 471 40,000 600 Climbing Los Angeles Center
12:05AM 34.4864 -118.7039 338° Northwest 413 475 40,000  Level Los Angeles Center
12:06AM 34.5911 -118.7578 337° Northwest 411 473 40,000  Level Los Angeles Center
12:07AM 34.6975 -118.8092 338° Northwest 413 475 40,000  Level Los Angeles Center
12:08AM 34.8014 -118.8631 337° Northwest 409 471 40,000  Level Los Angeles Center
12:09AM 34.8994 -118.9572 322° Northwest 396 456 40,000  Level Los Angeles Center
12:10AM 34.9756 -119.0314 321° Northwest 388 447 40,000  Level Los Angeles Center
12:11AM 35.0781 -119.1303 322° Northwest 391 450 40,000  Level Los Angeles Center
12:12AM 35.1644 -119.2139 322° Northwest 397 457 40,000  Level Los Angeles Center
12:13AM 35.2500 -119.2964 322° Northwest 396 456 40,000  Level Los Angeles Center
12:14AM 35.3353 -119.3817 321° Northwest 397 457 40,000  Level Los Angeles Center
12:15AM 35.3842 -119.4303 321° Northwest 395 455 40,000  Level Oakland Center
12:16AM 35.4692 -119.5150 321° Northwest 396 456 40,000  Level Oakland Center
12:17AM 35.5550 -119.5989 322° Northwest 396 456 40,000  Level Oakland Center
12:18AM 35.6414 -119.6853 321° Northwest 401 461 40,000  Level Oakland Center
12:19AM 35.7275 -119.7714 321° Northwest 402 463 40,000  Level Oakland Center
12:20AM 35.8150 -119.8586 321° Northwest 405 466 40,000  Level Oakland Center
12:21AM 35.9008 -119.9453 321° Northwest 403 464 40,000  Level Oakland Center
12:22AM 35.9867 -120.0325 321° Northwest 402 463 40,000  Level Oakland Center
12:23AM 36.0911 -120.1406 320° Northwest 411 473 40,000  Level Oakland Center
12:24AM 36.1764 -120.2261 321° Northwest 398 458 40,000  Level Oakland Center
12:25AM 36.2611 -120.3133 320° Northwest 398 458 40,000 -600 Level Oakland Center
12:26AM 36.3453 -120.4003 320° Northwest 395 455 38,900 -1,920 Descending Oakland Center
12:27AM 36.4275 -120.4842 321° Northwest 386 444 36,200 -2,640 Descending Oakland Center
12:28AM 36.5083 -120.5608 323° Northwest 370 426 33,600 -2,400 Descending Oakland Center
12:29AM 36.5872 -120.6469 319° Northwest 378 435 31,400 -2,220 Descending Oakland Center
12:30AM 36.6650 -120.7283 320° Northwest 368 423 29,200 -2,220 Descending Oakland Center
12:31AM 36.7403 -120.8075 320° Northwest 356 410 27,000 -2,160 Descending Oakland Center
12:32AM 36.8097 -120.8847 318° Northwest 340 391 24,900 -2,100 Descending Oakland Center
12:33AM 36.8797 -120.9636 318° Northwest 332 382 22,800 -2,040 Descending Oakland Center
12:34AM 36.9453 -121.0386 318° Northwest 321 369 20,800 -1,980 Descending Oakland Center
12:35AM 37.0103 -121.1142 317° Northwest 317 365 18,800 -2,100 Descending Oakland Center
12:36AM 37.0808 -121.1950 318° Northwest 310 357 16,600 -1,920 Descending Oakland Center
12:37AM 37.1369 -121.2583 318° Northwest 305 351 15,000 -1,740 Descending Oakland Center
12:38AM 37.1978 -121.3311 316° Northwest 303 349 13,100 -2,040 Descending Oakland Center
12:39AM 37.2700 -121.4150 317° Northwest 295 339 10,900 -1,560 Descending Oakland Center
12:40AM 37.3292 -121.4842 317° Northwest 291 335 10,000 -900 Descending Oakland Center
12:41AM 37.3800 -121.5444 317° Northwest 282 325 9,100 -1,020 Descending Oakland Center
12:42AM 37.4167 -121.5833 320° Northwest 272 313 8,600 -1,140 Descending Northern Cal TRACON
12:43AM 37.4667 -121.6500 313° West 269 310 7,600 -1,020 Descending Northern Cal TRACON
12:43AM 37.5000 -121.7167 302° West 269 310 6,700 -840 Descending Northern Cal TRACON
12:45AM 37.5333 -121.8167 293° West 248 285 6,000 -360 Descending Northern Cal TRACON
12:46AM 37.5500 -121.8833 288° West 217 250 6,000 -660 Level Northern Cal TRACON
12:47AM 37.5667 -121.9500 288° West 219 252 4,800 -1,140 Descending Northern Cal TRACON
12:48AM 37.6000 -122.0167 302° West 214 246 3,800 -1,080 Descending Northern Cal TRACON
12:49AM 37.6167 -122.0833 288° West 193 222 2,700 -1,080 Descending Northern Cal TRACON
12:49AM 37.6339 -122.1181 302° West 195 224 2,000 -900 Descending Oakland Center
12:50AM 37.6617 -122.1558 313° West 164 189 1,200 -780 Descending Oakland Center
12:51AM 37.6856 -122.1908 311° West 146 168 500 9,240 Descending Oakland Center
12:52AM 37.7069 -122.2231 310° West 133 153 20,000 19,140 Climbing Oakland Center
12:54AM 37.7167 -122.2167 270° West  Level FlightAware Approximate
01:01AM 37.7213 -122.2207 270° West  Level Estimated